sensor_id;sensor_type;location;lat;lon;timestamp;pressure;altitude;pressure_sealevel;temperature;humidity
26719;BME280;14326;50.794;6.060;2022-11-30T00:01:13;100241.16;;;6.46;100.00
26719;BME280;14326;50.794;6.060;2022-11-30T00:03:52;100235.88;;;6.46;100.00
26719;BME280;14326;50.794;6.060;2022-11-30T00:06:19;100243.19;;;6.53;100.00
26719;BME280;14326;50.794;6.060;2022-11-30T00:08:48;100235.28;;;6.55;100.00
26719;BME280;14326;50.794;6.060;2022-11-30T00:11:23;100227.47;;;6.58;100.00
26719;BME280;14326;50.794;6.060;2022-11-30T00:13:55;100237.16;;;6.57;100.00
26719;BME280;14326;50.794;6.060;2022-11-30T00:16:25;100238.06;;;6.58;100.00
26719;BME280;14326;50.794;6.060;2022-11-30T00:21:46;100236.41;;;6.62;100.00
26719;BME280;14326;50.794;6.060;2022-11-30T00:24:17;100236.34;;;6.60;100.00
26719;BME280;14326;50.794;6.060;2022-11-30T00:26:49;100231.22;;;6.65;100.00
26719;BME280;14326;50.794;6.060;2022-11-30T00:29:21;100222.44;;;6.66;100.00
26719;BME280;14326;50.794;6.060;2022-11-30T00:31:51;100223.25;;;6.63;100.00
26719;BME280;14326;50.794;6.060;2022-11-30T00:34:21;100218.84;;;6.64;100.00
26719;BME280;14326;50.794;6.060;2022-11-30T00:36:58;100224.16;;;6.64;100.00
26719;BME280;14326;50.794;6.060;2022-11-30T00:39:24;100220.69;;;6.66;100.00
26719;BME280;14326;50.794;6.060;2022-11-30T00:41:56;100225.19;;;6.69;100.00
26719;BME280;14326;50.794;6.060;2022-11-30T00:44:36;100223.53;;;6.72;100.00
26719;BME280;14326;50.794;6.060;2022-11-30T00:47:16;100232.38;;;6.73;100.00
26719;BME280;14326;50.794;6.060;2022-11-30T00:49:49;100226.94;;;6.68;100.00
26719;BME280;14326;50.794;6.060;2022-11-30T00:52:16;100231.44;;;6.71;100.00
26719;BME280;14326;50.794;6.060;2022-11-30T00:54:52;100229.63;;;6.70;100.00
26719;BME280;14326;50.794;6.060;2022-11-30T00:57:22;100227.84;;;6.69;100.00
26719;BME280;14326;50.794;6.060;2022-11-30T00:59:59;100225.28;;;6.72;100.00
26719;BME280;14326;50.794;6.060;2022-11-30T01:02:35;100229.72;;;6.73;100.00
26719;BME280;14326;50.794;6.060;2022-11-30T01:05:09;100234.19;;;6.74;100.00
26719;BME280;14326;50.794;6.060;2022-11-30T01:07:40;100232.34;;;6.71;100.00
26719;BME280;14326;50.794;6.060;2022-11-30T01:10:12;100233.22;;;6.72;100.00
26719;BME280;14326;50.794;6.060;2022-11-30T01:12:43;100233.28;;;6.73;100.00
26719;BME280;14326;50.794;6.060;2022-11-30T01:15:14;100233.22;;;6.72;100.00
26719;BME280;14326;50.794;6.060;2022-11-30T01:17:55;100244.69;;;6.72;100.00
26719;BME280;14326;50.794;6.060;2022-11-30T01:20:36;100236.81;;;6.74;100.00
26719;BME280;14326;50.794;6.060;2022-11-30T01:23:07;100239.59;;;6.77;100.00
26719;BME280;14326;50.794;6.060;2022-11-30T01:25:58;100245.59;;;6.73;100.00
26719;BME280;14326;50.794;6.060;2022-11-30T01:28:31;100250.09;;;6.75;100.00
26719;BME280;14326;50.794;6.060;2022-11-30T01:31:05;100251.00;;;6.76;100.00
26719;BME280;14326;50.794;6.060;2022-11-30T01:33:37;100251.91;;;6.76;100.00
26719;BME280;14326;50.794;6.060;2022-11-30T01:36:06;100251.09;;;6.79;100.00
26719;BME280;14326;50.794;6.060;2022-11-30T01:38:34;100242.31;;;6.80;100.00
26719;BME280;14326;50.794;6.060;2022-11-30T01:41:02;100238.84;;;6.81;100.00
26719;BME280;14326;50.794;6.060;2022-11-30T01:43:39;100245.81;;;6.79;100.00
26719;BME280;14326;50.794;6.060;2022-11-30T01:46:18;100236.28;;;6.84;100.00
26719;BME280;14326;50.794;6.060;2022-11-30T01:48:54;100245.94;;;6.82;100.00
26719;BME280;14326;50.794;6.060;2022-11-30T01:51:22;100237.16;;;6.83;100.00
26719;BME280;14326;50.794;6.060;2022-11-30T01:53:50;100243.28;;;6.82;100.00
26719;BME280;14326;50.794;6.060;2022-11-30T01:56:17;100243.22;;;6.80;100.00
26719;BME280;14326;50.794;6.060;2022-11-30T01:58:44;100240.56;;;6.80;100.00
26719;BME280;14326;50.794;6.060;2022-11-30T02:01:10;100241.41;;;6.79;100.00
26719;BME280;14326;50.794;6.060;2022-11-30T02:03:41;100245.94;;;6.82;100.00
26719;BME280;14326;50.794;6.060;2022-11-30T02:06:10;100243.22;;;6.80;100.00
26719;BME280;14326;50.794;6.060;2022-11-30T02:08:37;100237.94;;;6.80;100.00
26719;BME280;14326;50.794;6.060;2022-11-30T02:11:05;100238.72;;;6.78;100.00
26719;BME280;14326;50.794;6.060;2022-11-30T02:13:40;100244.00;;;6.78;100.00
26719;BME280;14326;50.794;6.060;2022-11-30T02:16:17;100244.81;;;6.75;100.00
26719;BME280;14326;50.794;6.060;2022-11-30T02:18:54;100241.28;;;6.75;100.00
26719;BME280;14326;50.794;6.060;2022-11-30T02:21:28;100251.06;;;6.77;100.00
26719;BME280;14326;50.794;6.060;2022-11-30T02:24:19;100241.22;;;6.73;100.00
26719;BME280;14326;50.794;6.060;2022-11-30T02:27:01;100240.31;;;6.73;100.00
26719;BME280;14326;50.794;6.060;2022-11-30T02:29:31;100237.63;;;6.71;100.00
26719;BME280;14326;50.794;6.060;2022-11-30T02:32:03;100245.59;;;6.73;100.00
26719;BME280;14326;50.794;6.060;2022-11-30T02:34:35;100243.78;;;6.72;100.00
26719;BME280;14326;50.794;6.060;2022-11-30T02:37:04;100248.22;;;6.71;100.00
26719;BME280;14326;50.794;6.060;2022-11-30T02:39:32;100247.41;;;6.74;100.00
26719;BME280;14326;50.794;6.060;2022-11-30T02:41:58;100243.78;;;6.72;100.00
26719;BME280;14326;50.794;6.060;2022-11-30T02:44:25;100240.28;;;6.71;100.00
26719;BME280;14326;50.794;6.060;2022-11-30T02:47:03;100241.16;;;6.72;100.00
26719;BME280;14326;50.794;6.060;2022-11-30T02:49:35;100242.09;;;6.74;100.00
26719;BME280;14326;50.794;6.060;2022-11-30T02:52:04;100236.72;;;6.71;100.00
26719;BME280;14326;50.794;6.060;2022-11-30T02:54:32;100232.28;;;6.70;100.00
26719;BME280;14326;50.794;6.060;2022-11-30T02:56:59;100240.09;;;6.67;100.00
26719;BME280;14326;50.794;6.060;2022-11-30T02:59:26;100238.41;;;6.69;100.00
26719;BME280;14326;50.794;6.060;2022-11-30T03:01:53;100241.91;;;6.68;100.00
26719;BME280;14326;50.794;6.060;2022-11-30T03:04:21;100233.06;;;6.67;100.00
26719;BME280;14326;50.794;6.060;2022-11-30T03:06:48;100235.78;;;6.69;100.00
26719;BME280;14326;50.794;6.060;2022-11-30T03:09:15;100237.56;;;6.70;100.00
26719;BME280;14326;50.794;6.060;2022-11-30T03:11:41;100234.09;;;6.71;100.00
26719;BME280;14326;50.794;6.060;2022-11-30T03:14:08;100244.66;;;6.71;100.00
26719;BME280;14326;50.794;6.060;2022-11-30T03:16:38;100230.47;;;6.69;100.00
26719;BME280;14326;50.794;6.060;2022-11-30T03:19:08;100232.28;;;6.70;100.00
26719;BME280;14326;50.794;6.060;2022-11-30T03:21:39;100234.81;;;6.67;100.00
26719;BME280;14326;50.794;6.060;2022-11-30T03:24:10;100245.38;;;6.67;100.00
26719;BME280;14326;50.794;6.060;2022-11-30T03:26:40;100248.09;;;6.68;100.00
26719;BME280;14326;50.794;6.060;2022-11-30T03:29:08;100249.94;;;6.71;100.00
26719;BME280;14326;50.794;6.060;2022-11-30T03:31:39;100243.78;;;6.72;100.00
26719;BME280;14326;50.794;6.060;2022-11-30T03:34:06;100243.78;;;6.72;100.00
26719;BME280;14326;50.794;6.060;2022-11-30T03:36:37;100248.22;;;6.71;100.00
26719;BME280;14326;50.794;6.060;2022-11-30T03:39:10;100247.41;;;6.74;100.00
26719;BME280;14326;50.794;6.060;2022-11-30T03:41:38;100245.50;;;6.70;100.00
26719;BME280;14326;50.794;6.060;2022-11-30T03:44:05;100252.59;;;6.71;100.00
26719;BME280;14326;50.794;6.060;2022-11-30T03:46:36;100249.88;;;6.69;100.00
26719;BME280;14326;50.794;6.060;2022-11-30T03:49:11;100251.63;;;6.69;100.00
26719;BME280;14326;50.794;6.060;2022-11-30T03:51:42;100248.16;;;6.70;100.00
26719;BME280;14326;50.794;6.060;2022-11-30T03:54:12;100249.13;;;6.73;100.00
26719;BME280;14326;50.794;6.060;2022-11-30T03:56:46;100245.50;;;6.70;100.00
26719;BME280;14326;50.794;6.060;2022-11-30T03:59:21;100242.94;;;6.73;100.00
26719;BME280;14326;50.794;6.060;2022-11-30T04:01:54;100251.00;;;6.76;100.00
26719;BME280;14326;50.794;6.060;2022-11-30T04:04:22;100247.47;;;6.75;100.00
26719;BME280;14326;50.794;6.060;2022-11-30T04:06:53;100263.31;;;6.75;100.00
26719;BME280;14326;50.794;6.060;2022-11-30T04:09:25;100255.38;;;6.75;100.00
26719;BME280;14326;50.794;6.060;2022-11-30T04:11:54;100251.00;;;6.76;100.00
26719;BME280;14326;50.794;6.060;2022-11-30T04:14:20;100257.97;;;6.74;100.00
26719;BME280;14326;50.794;6.060;2022-11-30T04:16:47;100255.38;;;6.75;100.00
26719;BME280;14326;50.794;6.060;2022-11-30T04:19:14;100260.72;;;6.77;100.00
26719;BME280;14326;50.794;6.060;2022-11-30T04:21:40;100258.94;;;6.76;100.00
26719;BME280;14326;50.794;6.060;2022-11-30T04:24:10;100257.22;;;6.78;100.00
26719;BME280;14326;50.794;6.060;2022-11-30T04:26:38;100258.94;;;6.76;100.00
26719;BME280;14326;50.794;6.060;2022-11-30T04:29:04;100254.53;;;6.76;100.00
26719;BME280;14326;50.794;6.060;2022-11-30T04:31:31;100252.84;;;6.78;100.00
26719;BME280;14326;50.794;6.060;2022-11-30T04:33:58;100258.19;;;6.80;100.00
26719;BME280;14326;50.794;6.060;2022-11-30T04:36:24;100251.09;;;6.79;100.00
26719;BME280;14326;50.794;6.060;2022-11-30T04:38:51;100254.69;;;6.81;100.00
26719;BME280;14326;50.794;6.060;2022-11-30T04:41:17;100261.78;;;6.82;100.00
26719;BME280;14326;50.794;6.060;2022-11-30T04:43:45;100260.06;;;6.84;100.00
26719;BME280;14326;50.794;6.060;2022-11-30T04:46:12;100268.88;;;6.83;100.00
26719;BME280;14326;50.794;6.060;2022-11-30T04:48:38;100260.75;;;6.78;100.00
26719;BME280;14326;50.794;6.060;2022-11-30T04:51:07;100266.06;;;6.78;100.00
26719;BME280;14326;50.794;6.060;2022-11-30T04:53:35;100262.69;;;6.82;100.00
26719;BME280;14326;50.794;6.060;2022-11-30T04:56:04;100260.81;;;6.80;100.00
26719;BME280;14326;50.794;6.060;2022-11-30T04:58:30;100267.97;;;6.82;100.00
26719;BME280;14326;50.794;6.060;2022-11-30T05:00:58;100267.97;;;6.82;100.00
26719;BME280;14326;50.794;6.060;2022-11-30T05:03:25;100269.75;;;6.83;100.00
26719;BME280;14326;50.794;6.060;2022-11-30T05:05:52;100257.41;;;6.82;100.00
26719;BME280;14326;50.794;6.060;2022-11-30T05:08:18;100261.81;;;6.83;100.00
26719;BME280;14326;50.794;6.060;2022-11-30T05:10:45;100265.28;;;6.81;100.00
26719;BME280;14326;50.794;6.060;2022-11-30T05:13:16;100256.44;;;6.80;100.00
26719;BME280;14326;50.794;6.060;2022-11-30T05:15:44;100258.25;;;6.81;100.00
26719;BME280;14326;50.794;6.060;2022-11-30T05:18:12;100259.09;;;6.80;100.00
26719;BME280;14326;50.794;6.060;2022-11-30T05:20:40;100261.78;;;6.82;100.00
26719;BME280;14326;50.794;6.060;2022-11-30T05:23:07;100262.69;;;6.82;100.00
26719;BME280;14326;50.794;6.060;2022-11-30T05:25:33;100259.16;;;6.83;100.00
26719;BME280;14326;50.794;6.060;2022-11-30T05:28:00;100263.59;;;6.83;100.00
26719;BME280;14326;50.794;6.060;2022-11-30T05:30:26;100265.44;;;6.85;100.00
26719;BME280;14326;50.794;6.060;2022-11-30T05:32:53;100270.66;;;6.84;100.00
26719;BME280;14326;50.794;6.060;2022-11-30T05:35:21;100267.38;;;6.91;100.00
26719;BME280;14326;50.794;6.060;2022-11-30T05:37:47;100269.81;;;6.85;100.00
26719;BME280;14326;50.794;6.060;2022-11-30T05:40:14;100272.31;;;6.80;100.00
26719;BME280;14326;50.794;6.060;2022-11-30T05:42:40;100273.06;;;6.78;100.00
26719;BME280;14326;50.794;6.060;2022-11-30T05:45:08;100274.88;;;6.79;100.00
26719;BME280;14326;50.794;6.060;2022-11-30T05:47:35;100287.19;;;6.78;100.00
26719;BME280;14326;50.794;6.060;2022-11-30T05:50:02;100279.34;;;6.80;100.00
26719;BME280;14326;50.794;6.060;2022-11-30T05:52:30;100286.31;;;6.78;100.00
26719;BME280;14326;50.794;6.060;2022-11-30T05:54:57;100273.94;;;6.77;100.00
26719;BME280;14326;50.794;6.060;2022-11-30T05:57:24;100287.16;;;6.77;100.00
26719;BME280;14326;50.794;6.060;2022-11-30T05:59:51;100288.00;;;6.76;100.00
26719;BME280;14326;50.794;6.060;2022-11-30T06:02:17;100283.56;;;6.75;100.00
26719;BME280;14326;50.794;6.060;2022-11-30T06:04:44;100286.22;;;6.75;100.00
26719;BME280;14326;50.794;6.060;2022-11-30T06:07:10;100288.09;;;6.79;100.00
26719;BME280;14326;50.794;6.060;2022-11-30T06:09:40;100292.47;;;6.77;100.00
26719;BME280;14326;50.794;6.060;2022-11-30T06:12:07;100291.59;;;6.78;100.00
26719;BME280;14326;50.794;6.060;2022-11-30T06:14:34;100296.78;;;6.75;100.00
26719;BME280;14326;50.794;6.060;2022-11-30T06:17:02;100297.69;;;6.75;100.00
26719;BME280;14326;50.794;6.060;2022-11-30T06:19:28;100296.66;;;6.72;100.00
26719;BME280;14326;50.794;6.060;2022-11-30T06:21:55;100294.97;;;6.74;100.00
26719;BME280;14326;50.794;6.060;2022-11-30T06:24:22;100292.28;;;6.72;100.00
26719;BME280;14326;50.794;6.060;2022-11-30T06:26:50;100289.69;;;6.74;100.00
26719;BME280;14326;50.794;6.060;2022-11-30T06:29:16;100299.16;;;6.67;100.00
26719;BME280;14326;50.794;6.060;2022-11-30T06:31:43;100296.41;;;6.64;100.00
26719;BME280;14326;50.794;6.060;2022-11-30T06:34:10;100297.25;;;6.63;100.00
26719;BME280;14326;50.794;6.060;2022-11-30T06:36:36;100302.00;;;6.73;100.00
26719;BME280;14326;50.794;6.060;2022-11-30T06:39:03;100301.03;;;6.70;100.00
26719;BME280;14326;50.794;6.060;2022-11-30T06:41:30;100307.13;;;6.69;100.00
26719;BME280;14326;50.794;6.060;2022-11-30T06:43:58;100300.84;;;6.65;100.00
26719;BME280;14326;50.794;6.060;2022-11-30T06:46:24;100305.25;;;6.65;100.00
26719;BME280;14326;50.794;6.060;2022-11-30T06:48:51;100306.16;;;6.65;100.00
26719;BME280;14326;50.794;6.060;2022-11-30T06:51:18;100304.34;;;6.64;100.00
26719;BME280;14326;50.794;6.060;2022-11-30T06:53:45;100307.81;;;6.63;100.00
26719;BME280;14326;50.794;6.060;2022-11-30T06:56:12;100312.16;;;6.61;100.00
26719;BME280;14326;50.794;6.060;2022-11-30T06:58:39;100319.91;;;6.56;100.00
26719;BME280;14326;50.794;6.060;2022-11-30T07:01:08;100318.94;;;6.54;100.00
26719;BME280;14326;50.794;6.060;2022-11-30T07:03:36;100318.91;;;6.53;100.00
26719;BME280;14326;50.794;6.060;2022-11-30T07:06:06;100324.13;;;6.51;100.00
26719;BME280;14326;50.794;6.060;2022-11-30T07:08:33;100324.22;;;6.53;100.00
26719;BME280;14326;50.794;6.060;2022-11-30T07:11:00;100325.09;;;6.53;100.00
26719;BME280;14326;50.794;6.060;2022-11-30T07:13:26;100328.69;;;6.55;100.00
26719;BME280;14326;50.794;6.060;2022-11-30T07:15:54;100331.31;;;6.55;100.00
26719;BME280;14326;50.794;6.060;2022-11-30T07:18:22;100333.03;;;6.53;100.00
26719;BME280;14326;50.794;6.060;2022-11-30T07:20:49;100341.91;;;6.55;100.00
26719;BME280;14326;50.794;6.060;2022-11-30T07:23:15;100339.25;;;6.55;100.00
26719;BME280;14326;50.794;6.060;2022-11-30T07:26:01;100341.91;;;6.55;100.00
26719;BME280;14326;50.794;6.060;2022-11-30T07:28:34;100346.28;;;6.55;100.00
26719;BME280;14326;50.794;6.060;2022-11-30T07:31:01;100349.00;;;6.56;100.00
26719;BME280;14326;50.794;6.060;2022-11-30T07:33:31;100344.59;;;6.57;100.00
26719;BME280;14326;50.794;6.060;2022-11-30T07:35:57;100356.06;;;6.57;100.00
26719;BME280;14326;50.794;6.060;2022-11-30T07:38:24;100354.28;;;6.56;100.00
26719;BME280;14326;50.794;6.060;2022-11-30T07:40:51;100359.50;;;6.55;100.00
26719;BME280;14326;50.794;6.060;2022-11-30T07:43:17;100355.84;;;6.51;100.00
26719;BME280;14326;50.794;6.060;2022-11-30T07:45:50;100357.53;;;6.49;100.00
26719;BME280;14326;50.794;6.060;2022-11-30T07:48:16;100356.75;;;6.52;100.00
26719;BME280;14326;50.794;6.060;2022-11-30T07:50:44;100365.53;;;6.51;100.00
26719;BME280;14326;50.794;6.060;2022-11-30T07:53:19;100356.59;;;6.47;100.00
26719;BME280;14326;50.794;6.060;2022-11-30T07:55:47;100363.66;;;6.48;100.00
26719;BME280;14326;50.794;6.060;2022-11-30T07:58:20;100358.44;;;6.50;100.00
26719;BME280;14326;50.794;6.060;2022-11-30T08:00:46;100366.34;;;6.50;100.00
26719;BME280;14326;50.794;6.060;2022-11-30T08:03:13;100369.00;;;6.50;100.00
26719;BME280;14326;50.794;6.060;2022-11-30T08:05:39;100368.94;;;6.48;100.00
26719;BME280;14326;50.794;6.060;2022-11-30T08:08:07;100364.53;;;6.47;100.00
26719;BME280;14326;50.794;6.060;2022-11-30T08:10:35;100372.53;;;6.50;100.00
26719;BME280;14326;50.794;6.060;2022-11-30T08:13:01;100375.34;;;6.55;100.00
26719;BME280;14326;50.794;6.060;2022-11-30T08:15:30;100369.16;;;6.54;100.00
26719;BME280;14326;50.794;6.060;2022-11-30T08:17:58;100375.50;;;6.58;100.00
26719;BME280;14326;50.794;6.060;2022-11-30T08:20:29;100368.47;;;6.58;100.00
26719;BME280;14326;50.794;6.060;2022-11-30T08:22:57;100381.59;;;6.57;100.00
26719;BME280;14326;50.794;6.060;2022-11-30T08:25:25;100382.44;;;6.56;100.00
26719;BME280;14326;50.794;6.060;2022-11-30T08:27:52;100382.28;;;6.51;100.00
26719;BME280;14326;50.794;6.060;2022-11-30T08:30:18;100382.28;;;6.51;100.00
26719;BME280;14326;50.794;6.060;2022-11-30T08:32:45;100379.63;;;6.51;100.00
26719;BME280;14326;50.794;6.060;2022-11-30T08:35:12;100386.75;;;6.54;100.00
26719;BME280;14326;50.794;6.060;2022-11-30T08:37:38;100387.56;;;6.51;100.00
26719;BME280;14326;50.794;6.060;2022-11-30T08:40:06;100383.13;;;6.50;100.00
26719;BME280;14326;50.794;6.060;2022-11-30T08:42:34;100391.88;;;6.49;100.00
26719;BME280;14326;50.794;6.060;2022-11-30T08:45:01;100388.31;;;6.47;100.00
26719;BME280;14326;50.794;6.060;2022-11-30T08:47:29;100389.13;;;6.46;100.00
26719;BME280;14326;50.794;6.060;2022-11-30T08:49:56;100396.34;;;6.50;100.00
26719;BME280;14326;50.794;6.060;2022-11-30T08:52:23;100391.03;;;6.50;100.00
26719;BME280;14326;50.794;6.060;2022-11-30T08:54:50;100390.22;;;6.51;100.00
26719;BME280;14326;50.794;6.060;2022-11-30T08:57:19;100391.13;;;6.52;100.00
26719;BME280;14326;50.794;6.060;2022-11-30T08:59:47;100389.31;;;6.51;100.00
26719;BME280;14326;50.794;6.060;2022-11-30T09:02:16;100394.53;;;6.49;100.00
26719;BME280;14326;50.794;6.060;2022-11-30T09:04:44;100400.72;;;6.50;100.00
26719;BME280;14326;50.794;6.060;2022-11-30T09:07:12;100396.34;;;6.50;100.00
26719;BME280;14326;50.794;6.060;2022-11-30T09:09:38;100396.25;;;6.49;100.00
26719;BME280;14326;50.794;6.060;2022-11-30T09:12:06;100400.78;;;6.51;100.00
26719;BME280;14326;50.794;6.060;2022-11-30T09:14:32;100403.34;;;6.50;100.00
26719;BME280;14326;50.794;6.060;2022-11-30T09:17:01;100402.53;;;6.51;100.00
26719;BME280;14326;50.794;6.060;2022-11-30T09:19:29;100405.22;;;6.52;100.00
26719;BME280;14326;50.794;6.060;2022-11-30T09:21:56;100407.13;;;6.56;100.00
26719;BME280;14326;50.794;6.060;2022-11-30T09:24:23;100411.88;;;6.65;100.00
26719;BME280;14326;50.794;6.060;2022-11-30T09:26:53;100411.00;;;6.66;100.00
26719;BME280;14326;50.794;6.060;2022-11-30T09:29:21;100407.47;;;6.66;100.00
26719;BME280;14326;50.794;6.060;2022-11-30T09:31:48;100414.63;;;6.68;100.00
26719;BME280;14326;50.794;6.060;2022-11-30T09:34:16;100409.25;;;6.65;100.00
26719;BME280;14326;50.794;6.060;2022-11-30T09:36:42;100408.66;;;6.74;100.00
26719;BME280;14326;50.794;6.060;2022-11-30T09:39:10;100407.66;;;6.70;100.00
26719;BME280;14326;50.794;6.060;2022-11-30T09:42:04;100414.78;;;6.73;100.00
26719;BME280;14326;50.794;6.060;2022-11-30T09:44:42;100413.03;;;6.73;100.00
26719;BME280;14326;50.794;6.060;2022-11-30T09:47:24;100415.00;;;6.79;100.00
26719;BME280;14326;50.794;6.060;2022-11-30T09:49:56;100420.28;;;6.77;100.00
26719;BME280;14326;50.794;6.060;2022-11-30T09:52:32;100415.16;;;6.83;100.00
26719;BME280;14326;50.794;6.060;2022-11-30T09:55:00;100424.97;;;6.86;100.00
26719;BME280;14326;50.794;6.060;2022-11-30T09:57:42;100426.03;;;6.91;100.00
26719;BME280;14326;50.794;6.060;2022-11-30T10:00:11;100426.16;;;6.94;100.00
26719;BME280;14326;50.794;6.060;2022-11-30T10:02:40;100420.06;;;6.96;100.00
26719;BME280;14326;50.794;6.060;2022-11-30T10:05:12;100422.34;;;6.86;100.00
26719;BME280;14326;50.794;6.060;2022-11-30T10:07:51;100422.91;;;6.77;100.00
26719;BME280;14326;50.794;6.060;2022-11-30T10:10:31;100423.69;;;6.75;100.00
26719;BME280;14326;50.794;6.060;2022-11-30T10:13:12;100420.31;;;6.79;100.00
26719;BME280;14326;50.794;6.060;2022-11-30T10:15:51;100424.59;;;6.75;100.00
26719;BME280;14326;50.794;6.060;2022-11-30T10:18:30;100414.78;;;6.73;100.00
26719;BME280;14326;50.794;6.060;2022-11-30T10:21:11;100420.06;;;6.73;100.00
26719;BME280;14326;50.794;6.060;2022-11-30T10:24:00;100418.28;;;6.72;100.00
26719;BME280;14326;50.794;6.060;2022-11-30T10:26:31;100411.06;;;6.68;100.00
26719;BME280;14326;50.794;6.060;2022-11-30T10:29:04;100413.88;;;6.72;100.00
26719;BME280;14326;50.794;6.060;2022-11-30T10:31:37;100412.22;;;6.74;100.00
26719;BME280;14326;50.794;6.060;2022-11-30T10:34:17;100409.56;;;6.74;100.00
26719;BME280;14326;50.794;6.060;2022-11-30T10:36:50;100402.47;;;6.73;100.00
26719;BME280;14326;50.794;6.060;2022-11-30T10:39:20;100412.94;;;6.70;100.00
26719;BME280;14326;50.794;6.060;2022-11-30T10:41:50;100408.56;;;6.71;100.00
26719;BME280;14326;50.794;6.060;2022-11-30T10:44:19;100406.91;;;6.74;100.00
26719;BME280;14326;50.794;6.060;2022-11-30T10:46:56;100404.22;;;6.73;100.00
26719;BME280;14326;50.794;6.060;2022-11-30T10:49:27;100403.44;;;6.75;100.00
26719;BME280;14326;50.794;6.060;2022-11-30T10:52:00;100404.34;;;6.76;100.00
26719;BME280;14326;50.794;6.060;2022-11-30T10:54:29;100409.69;;;6.77;100.00
26719;BME280;14326;50.794;6.060;2022-11-30T10:56:57;100404.06;;;6.68;100.00
26719;BME280;14326;50.794;6.060;2022-11-30T10:59:32;100405.69;;;6.65;100.00
26719;BME280;14326;50.794;6.060;2022-11-30T11:01:59;100405.69;;;6.65;100.00
26719;BME280;14326;50.794;6.060;2022-11-30T11:04:26;100407.38;;;6.63;100.00
26719;BME280;14326;50.794;6.060;2022-11-30T11:06:57;100406.38;;;6.59;100.00
26719;BME280;14326;50.794;6.060;2022-11-30T11:09:32;100391.28;;;6.56;100.00
26719;BME280;14326;50.794;6.060;2022-11-30T11:12:01;100395.56;;;6.53;100.00
26719;BME280;14326;50.794;6.060;2022-11-30T11:14:29;100406.16;;;6.54;100.00
26719;BME280;14326;50.794;6.060;2022-11-30T11:16:57;100392.84;;;6.51;100.00
26719;BME280;14326;50.794;6.060;2022-11-30T11:19:33;100389.31;;;6.51;100.00
26719;BME280;14326;50.794;6.060;2022-11-30T11:22:04;100394.75;;;6.55;100.00
26719;BME280;14326;50.794;6.060;2022-11-30T11:24:32;100397.56;;;6.60;100.00
26719;BME280;14326;50.794;6.060;2022-11-30T11:27:00;100390.53;;;6.61;100.00
26719;BME280;14326;50.794;6.060;2022-11-30T11:29:29;100393.63;;;6.73;100.00
26719;BME280;14326;50.794;6.060;2022-11-30T11:32:24;100395.44;;;6.74;100.00
26719;BME280;14326;50.794;6.060;2022-11-30T11:34:51;100397.75;;;6.65;100.00
26719;BME280;14326;50.794;6.060;2022-11-30T11:37:21;100396.88;;;6.66;100.00
26719;BME280;14326;50.794;6.060;2022-11-30T11:39:55;100395.13;;;6.65;100.00
26719;BME280;14326;50.794;6.060;2022-11-30T11:42:22;100400.28;;;6.62;100.00
26719;BME280;14326;50.794;6.060;2022-11-30T11:44:51;100402.25;;;6.67;100.00
26719;BME280;14326;50.794;6.060;2022-11-30T11:47:23;100406.75;;;6.70;100.00
26719;BME280;14326;50.794;6.060;2022-11-30T11:49:51;100398.81;;;6.70;100.00
26719;BME280;14326;50.794;6.060;2022-11-30T11:52:30;100412.28;;;6.76;100.00
26719;BME280;14326;50.794;6.060;2022-11-30T11:55:00;100418.50;;;6.78;100.00
26719;BME280;14326;50.794;6.060;2022-11-30T11:57:35;100408.88;;;6.80;100.00
26719;BME280;14326;50.794;6.060;2022-11-30T12:00:05;100407.31;;;6.85;100.00
26719;BME280;14326;50.794;6.060;2022-11-30T12:02:36;100405.69;;;6.88;100.00
26719;BME280;14326;50.794;6.060;2022-11-30T12:05:08;100408.44;;;6.91;100.00
26719;BME280;14326;50.794;6.060;2022-11-30T12:07:45;100403.13;;;6.91;100.00
26719;BME280;14326;50.794;6.060;2022-11-30T12:10:24;100406.84;;;6.96;100.00
26719;BME280;14326;50.794;6.060;2022-11-30T12:12:52;100403.44;;;6.99;100.00
26719;BME280;14326;50.794;6.060;2022-11-30T12:15:22;100401.53;;;6.95;100.00
26719;BME280;14326;50.794;6.060;2022-11-30T12:17:57;100401.63;;;6.98;100.00
26719;BME280;14326;50.794;6.060;2022-11-30T12:20:45;100400.84;;;7.01;100.00
26719;BME280;14326;50.794;6.060;2022-11-30T12:23:29;100387.78;;;7.05;100.00
26719;BME280;14326;50.794;6.060;2022-11-30T12:26:07;100388.69;;;7.06;100.00
26719;BME280;14326;50.794;6.060;2022-11-30T12:28:54;100387.78;;;7.05;100.00
26719;BME280;14326;50.794;6.060;2022-11-30T12:31:32;100388.63;;;7.04;100.00
26719;BME280;14326;50.794;6.060;2022-11-30T12:34:08;100393.16;;;7.08;100.00
26719;BME280;14326;50.794;6.060;2022-11-30T12:36:49;100383.53;;;7.10;100.00
26719;BME280;14326;50.794;6.060;2022-11-30T12:39:29;100388.94;;;7.13;100.00
26719;BME280;14326;50.794;6.060;2022-11-30T12:42:03;100397.13;;;7.21;100.00
26719;BME280;14326;50.794;6.060;2022-11-30T12:44:42;100396.44;;;7.26;100.00
26719;BME280;14326;50.794;6.060;2022-11-30T12:47:21;100390.38;;;7.29;100.00
26719;BME280;14326;50.794;6.060;2022-11-30T12:50:07;100391.09;;;7.25;100.00
26719;BME280;14326;50.794;6.060;2022-11-30T12:52:47;100390.38;;;7.29;100.00
26719;BME280;14326;50.794;6.060;2022-11-30T12:55:26;100393.94;;;7.29;100.00
26719;BME280;14326;50.794;6.060;2022-11-30T12:57:58;100393.94;;;7.29;100.00
26719;BME280;14326;50.794;6.060;2022-11-30T13:00:34;100398.25;;;7.27;100.00
26719;BME280;14326;50.794;6.060;2022-11-30T13:03:36;100386.00;;;7.29;100.00
26719;BME280;14326;50.794;6.060;2022-11-30T13:06:10;100384.06;;;7.25;100.00
26719;BME280;14326;50.794;6.060;2022-11-30T13:08:43;100388.50;;;7.26;100.00
26719;BME280;14326;50.794;6.060;2022-11-30T13:11:17;100394.03;;;7.32;100.00